Time;durP1;ratioP1;P1;durP2;ratioP2;P2;SDS_P1;SDS_P2;PMS_P1;PMS_P2;Temp;Humidity;BMP_temperature;BMP_pressure;BME280_temperature;BME280_humidity;BME280_pressure;Samples;Min_cycle;Max_cycle;Signal;HPM_P1;HPM_P2
2022/05/11 00:01:13;;;;;;;4.00;3.70;;;;;;;13.25;82.40;96149.00;5017235;28;20045;-58
2022/05/11 00:03:40;;;;;;;3.83;3.25;;;;;;;13.20;82.75;96150.44;5018631;28;20512;-59
2022/05/11 00:06:05;;;;;;;4.18;3.90;;;;;;;13.19;82.90;96146.97;5015407;28;20542;-59
2022/05/11 00:08:31;;;;;;;4.45;3.97;;;;;;;13.15;82.98;96135.88;5024745;28;20026;-59
2022/05/11 00:10:56;;;;;;;5.20;3.85;;;;;;;13.15;82.77;96140.31;5023833;28;20028;-59
2022/05/11 00:13:22;;;;;;;4.05;3.50;;;;;;;13.20;82.67;96134.59;5017712;28;20032;-58
2022/05/11 00:15:47;;;;;;;8.10;3.53;;;;;;;13.20;81.67;96130.13;5015313;28;20507;-59
2022/05/11 00:18:12;;;;;;;4.22;3.92;;;;;;;13.13;82.02;96142.25;5020220;28;20568;-58
2022/05/11 00:20:38;;;;;;;3.92;3.70;;;;;;;13.09;81.22;96131.16;5016852;28;20041;-59
2022/05/11 00:23:04;;;;;;;3.67;3.38;;;;;;;13.04;82.11;96134.25;5013679;28;20044;-59
2022/05/11 00:25:29;;;;;;;3.92;3.63;;;;;;;12.96;82.06;96136.78;5017188;28;20033;-58
2022/05/11 00:27:56;;;;;;;3.55;3.33;;;;;;;12.94;81.81;96143.19;5018711;28;20017;-59
2022/05/11 00:30:23;;;;;;;3.97;3.55;;;;;;;12.90;81.83;96132.88;5019400;28;20503;-58
2022/05/11 00:32:52;;;;;;;7.18;3.88;;;;;;;12.81;82.13;96136.41;5016963;28;20041;-58
2022/05/11 00:35:17;;;;;;;7.40;3.55;;;;;;;12.75;82.12;96135.19;5024773;28;20096;-59
2022/05/11 00:37:43;;;;;;;4.03;3.78;;;;;;;12.76;82.86;96133.38;5017333;28;20444;-59
2022/05/11 00:40:08;;;;;;;3.60;3.40;;;;;;;12.74;83.14;96127.41;5015535;28;20029;-59
2022/05/11 00:42:34;;;;;;;4.90;4.15;;;;;;;12.78;82.16;96127.94;5023324;28;20366;-59
2022/05/11 00:44:59;;;;;;;3.90;3.58;;;;;;;12.71;82.89;96122.41;5018046;28;20481;-58
2022/05/11 00:47:33;;;;;;;3.95;3.65;;;;;;;12.67;82.94;96126.31;5018671;28;20457;-59
2022/05/11 00:50:06;;;;;;;3.85;3.65;;;;;;;12.59;83.41;96119.94;5014862;28;20024;-59
2022/05/11 00:52:58;;;;;;;4.30;3.90;;;;;;;12.60;83.26;96126.06;5018088;28;20062;-59
2022/05/11 00:55:33;;;;;;;4.30;3.90;;;;;;;12.58;83.49;96125.38;5016278;28;20084;-59
2022/05/11 00:58:04;;;;;;;8.13;3.67;;;;;;;12.56;83.63;96116.75;5019244;28;20559;-59
2022/05/11 01:00:30;;;;;;;4.00;3.70;;;;;;;12.53;83.66;96117.91;5016908;28;20034;-59
2022/05/11 01:03:03;;;;;;;3.78;3.47;;;;;;;12.45;84.72;96115.13;5013617;28;20034;-59
2022/05/11 01:05:29;;;;;;;4.53;3.33;;;;;;;12.44;83.45;96105.53;5025329;28;20033;-58
2022/05/11 01:07:56;;;;;;;6.05;3.72;;;;;;;12.37;83.98;96115.00;5018153;28;20025;-58
2022/05/11 01:10:24;;;;;;;3.72;3.50;;;;;;;12.31;83.07;96111.97;5016064;28;20028;-58
2022/05/11 01:12:52;;;;;;;3.92;3.72;;;;;;;12.23;83.40;96105.72;5016509;28;20014;-59
2022/05/11 01:15:19;;;;;;;3.80;3.60;;;;;;;12.23;83.90;96106.56;5023216;28;20034;-58
2022/05/11 01:17:45;;;;;;;3.88;3.13;;;;;;;12.22;84.04;96096.97;5020452;28;20096;-59
2022/05/11 01:20:15;;;;;;;4.22;3.85;;;;;;;12.22;84.83;96104.06;5019672;28;20526;-59
2022/05/11 01:22:57;;;;;;;3.95;3.65;;;;;;;12.14;85.58;96110.06;5021052;28;20034;-58
2022/05/11 01:25:23;;;;;;;4.22;3.92;;;;;;;12.08;84.87;96105.34;5019940;28;20507;-58
2022/05/11 01:27:49;;;;;;;3.80;3.60;;;;;;;12.06;85.46;96113.41;5024820;28;20029;-59
2022/05/11 01:30:18;;;;;;;4.05;3.67;;;;;;;12.02;86.08;96104.91;5022971;28;20034;-58
2022/05/11 01:32:51;;;;;;;4.20;4.00;;;;;;;12.01;85.33;96105.06;5025232;28;20086;-59
2022/05/11 01:35:38;;;;;;;4.45;3.95;;;;;;;11.95;86.25;96109.06;5024362;28;20042;-58
2022/05/11 01:38:31;;;;;;;4.00;3.70;;;;;;;11.96;87.04;96102.81;5022644;28;20084;-59
2022/05/11 01:40:57;;;;;;;3.80;3.60;;;;;;;11.98;85.97;96108.78;5021379;28;20044;-58
2022/05/11 01:43:27;;;;;;;4.95;4.50;;;;;;;11.97;85.81;96099.19;5021563;28;20029;-58
2022/05/11 01:45:52;;;;;;;7.75;4.43;;;;;;;11.93;86.42;96097.81;5024259;28;20033;-59
2022/05/11 01:48:18;;;;;;;4.63;4.22;;;;;;;11.89;88.28;96096.44;5020933;28;20029;-58
2022/05/11 01:50:44;;;;;;;3.90;3.70;;;;;;;11.85;86.47;96092.44;5025235;28;20587;-59
2022/05/11 01:53:09;;;;;;;5.30;4.20;;;;;;;11.80;87.65;96086.72;5023471;28;20026;-58
2022/05/11 01:55:35;;;;;;;5.00;4.60;;;;;;;11.78;88.24;96092.16;5022232;28;20025;-59
2022/05/11 01:58:01;;;;;;;7.10;5.70;;;;;;;11.78;88.50;96099.22;5016901;28;20018;-58
2022/05/11 02:00:27;;;;;;;7.63;5.13;;;;;;;11.71;87.83;96091.88;5020917;28;20049;-58
2022/05/11 02:02:52;;;;;;;5.90;4.30;;;;;;;11.68;88.53;96092.16;5021984;28;20026;-58
2022/05/11 02:08:02;;;;;;;4.30;3.80;;;;;;;11.69;88.25;96096.44;5019474;28;20096;-59
2022/05/11 02:10:28;;;;;;;5.13;4.68;;;;;;;11.71;88.65;96088.38;5027240;28;20026;-59
2022/05/11 02:12:55;;;;;;;5.50;5.00;;;;;;;11.66;88.57;96086.19;5019691;28;20041;-58
2022/05/11 02:15:21;;;;;;;7.22;4.45;;;;;;;11.68;88.05;96094.78;5020599;28;20473;-59
2022/05/11 02:17:47;;;;;;;4.60;4.22;;;;;;;11.66;87.51;96094.09;5037441;28;20038;-59
2022/05/11 02:20:15;;;;;;;8.77;3.72;;;;;;;11.60;88.58;96092.00;5021358;28;20034;-59
2022/05/11 02:22:41;;;;;;;4.68;4.38;;;;;;;11.56;88.74;96099.38;5025350;28;20099;-58
2022/05/11 02:25:07;;;;;;;4.85;4.45;;;;;;;11.54;88.31;96103.09;5023625;28;20025;-59
2022/05/11 02:27:34;;;;;;;5.55;4.47;;;;;;;11.50;88.72;96102.56;5019280;28;20476;-59
2022/05/11 02:30:00;;;;;;;5.32;4.07;;;;;;;11.51;89.52;96106.00;5017203;28;20501;-58
2022/05/11 02:32:26;;;;;;;4.55;4.25;;;;;;;11.52;89.79;96105.03;5022899;28;20040;-59
2022/05/11 02:37:36;;;;;;;4.18;3.88;;;;;;;11.36;91.36;96106.41;5024885;28;20566;-58
2022/05/11 02:40:02;;;;;;;4.63;4.22;;;;;;;11.31;90.46;96103.34;5021074;28;20021;-58
2022/05/11 02:42:27;;;;;;;4.53;4.10;;;;;;;11.29;91.16;96100.88;5019965;28;20029;-59
2022/05/11 02:44:53;;;;;;;4.70;4.40;;;;;;;11.27;90.50;96102.81;5022195;28;20153;-59
2022/05/11 02:47:18;;;;;;;7.50;4.03;;;;;;;11.27;90.23;96109.88;5021231;28;20044;-59
2022/05/11 02:49:45;;;;;;;5.25;4.55;;;;;;;11.28;90.11;96108.91;5023329;28;20105;-59
2022/05/11 02:52:10;;;;;;;4.80;4.45;;;;;;;11.26;90.39;96111.66;5022715;28;20424;-59
2022/05/11 02:54:36;;;;;;;7.35;4.07;;;;;;;11.24;89.78;96110.97;5024416;28;20036;-59
2022/05/11 02:57:02;;;;;;;4.72;4.43;;;;;;;11.24;90.16;96110.97;5022932;28;20045;-59
2022/05/11 02:59:28;;;;;;;4.90;4.50;;;;;;;11.22;90.16;96104.19;5021311;28;20524;-58
2022/05/11 03:01:54;;;;;;;4.43;4.03;;;;;;;11.22;89.97;96115.53;5019704;28;20034;-58
2022/05/11 03:04:19;;;;;;;4.40;4.00;;;;;;;11.23;90.80;96108.47;5021961;28;20387;-58
2022/05/11 03:06:47;;;;;;;5.22;4.78;;;;;;;11.24;90.47;96108.31;5019548;28;20018;-59
2022/05/11 03:09:15;;;;;;;6.20;4.40;;;;;;;11.18;91.10;96101.81;5028124;28;20413;-59
2022/05/11 03:11:41;;;;;;;4.95;4.50;;;;;;;11.12;91.64;96102.34;5019856;28;20108;-59
2022/05/11 03:14:06;;;;;;;4.30;3.90;;;;;;;11.06;91.82;96100.25;5017737;28;20057;-59
2022/05/11 03:16:31;;;;;;;5.15;4.75;;;;;;;11.11;91.48;96097.22;5020362;28;20064;-59
2022/05/11 03:18:59;;;;;;;8.27;5.03;;;;;;;11.08;91.76;96103.59;5023443;28;20033;-59
2022/05/11 03:21:25;;;;;;;4.68;4.38;;;;;;;11.11;90.67;96100.66;5019943;28;20088;-59
2022/05/11 03:23:50;;;;;;;6.63;4.82;;;;;;;11.08;91.84;96093.03;5018569;28;20037;-59
2022/05/11 03:26:16;;;;;;;4.25;4.03;;;;;;;11.08;92.67;96090.41;5021560;28;20122;-59
2022/05/11 03:28:41;;;;;;;5.65;5.15;;;;;;;11.09;92.68;96094.72;5019900;28;20117;-59
2022/05/11 03:31:07;;;;;;;6.97;4.90;;;;;;;11.02;93.47;96090.97;5020835;28;20036;-58
2022/05/11 03:36:16;;;;;;;5.03;4.68;;;;;;;10.95;93.03;96097.75;5020618;28;20061;-59
2022/05/11 03:38:41;;;;;;;5.05;4.45;;;;;;;10.95;92.61;96087.22;5020523;28;20445;-58
2022/05/11 03:41:07;;;;;;;4.78;4.38;;;;;;;10.92;92.82;96098.84;5016231;28;20014;-59
2022/05/11 03:43:32;;;;;;;6.70;4.43;;;;;;;10.92;93.63;96087.44;5019245;28;20029;-59
2022/05/11 03:45:59;;;;;;;4.90;4.50;;;;;;;10.88;93.21;96090.34;5022493;28;20484;-58
2022/05/11 03:48:25;;;;;;;6.60;4.80;;;;;;;10.87;93.29;96090.50;5020366;28;20044;-59
2022/05/11 03:50:50;;;;;;;5.28;4.78;;;;;;;10.89;92.78;96094.66;5018973;28;20021;-59
2022/05/11 03:53:15;;;;;;;4.88;4.47;;;;;;;10.92;91.97;96092.72;5026917;28;20491;-59
2022/05/11 03:55:41;;;;;;;4.72;4.43;;;;;;;10.92;92.73;96093.56;5021219;28;20409;-59
2022/05/11 03:58:06;;;;;;;4.65;4.35;;;;;;;10.91;92.59;96096.31;5018286;28;20091;-58
2022/05/11 04:00:32;;;;;;;5.70;5.13;;;;;;;10.86;92.98;96092.28;5017447;28;20119;-59
2022/05/11 04:02:58;;;;;;;5.47;4.63;;;;;;;10.83;93.82;96103.09;5021520;28;20030;-59
2022/05/11 04:05:24;;;;;;;6.82;4.97;;;;;;;10.82;93.76;96103.22;5027702;28;20136;-59
2022/05/11 04:07:50;;;;;;;5.63;5.13;;;;;;;10.84;93.31;96102.13;5022723;28;20540;-60
2022/05/11 04:10:17;;;;;;;6.43;5.07;;;;;;;10.80;94.23;96100.72;5025974;28;20013;-60
2022/05/11 04:12:43;;;;;;;5.75;5.22;;;;;;;10.78;93.50;96102.66;5014313;28;20105;-59
2022/05/11 04:15:10;;;;;;;5.70;4.95;;;;;;;10.80;92.97;96106.00;5023091;28;20452;-60
2022/05/11 04:17:35;;;;;;;4.75;4.45;;;;;;;10.74;93.04;96107.38;5019175;28;20040;-59
2022/05/11 04:20:03;;;;;;;4.65;4.32;;;;;;;10.74;93.21;96111.81;5014148;28;20477;-60
2022/05/11 04:22:29;;;;;;;4.90;4.60;;;;;;;10.72;93.08;96117.19;5023095;28;20033;-60
2022/05/11 04:24:54;;;;;;;5.15;4.78;;;;;;;10.69;93.04;96124.50;5024803;28;20041;-60
2022/05/11 04:27:19;;;;;;;5.50;5.10;;;;;;;10.70;93.06;96116.50;5025207;28;20109;-60
2022/05/11 04:29:45;;;;;;;6.97;5.60;;;;;;;10.69;93.97;96127.16;5018275;28;20480;-60
2022/05/11 04:32:10;;;;;;;6.65;4.90;;;;;;;10.70;93.45;96115.66;5022055;28;20117;-60
2022/05/11 04:34:40;;;;;;;6.57;4.78;;;;;;;10.69;93.63;96121.88;5017921;28;20031;-60
2022/05/11 04:37:05;;;;;;;4.97;4.68;;;;;;;10.68;94.00;96128.13;5025882;28;20025;-59
2022/05/11 04:39:31;;;;;;;5.60;5.10;;;;;;;10.72;93.07;96125.09;5026441;28;20029;-59
2022/05/11 04:41:57;;;;;;;5.53;5.15;;;;;;;10.77;92.98;96132.59;5022598;28;20060;-59
2022/05/11 04:44:22;;;;;;;7.00;5.43;;;;;;;10.77;94.03;96131.75;5024869;28;20041;-60
2022/05/11 04:46:48;;;;;;;5.22;4.72;;;;;;;10.79;94.02;96135.09;5022662;28;20029;-60
2022/05/11 04:49:16;;;;;;;5.38;5.07;;;;;;;10.75;94.23;96135.38;5017085;28;20030;-60
2022/05/11 04:51:59;;;;;;;6.13;5.13;;;;;;;10.76;93.67;96133.56;5019104;28;20034;-61
2022/05/11 04:54:24;;;;;;;5.65;5.15;;;;;;;10.81;93.27;96136.63;5018927;28;20457;-60
2022/05/11 04:56:50;;;;;;;12.48;5.95;;;;;;;10.85;93.23;96145.13;5023520;28;20041;-59
2022/05/11 04:59:15;;;;;;;5.65;5.25;;;;;;;10.84;93.91;96146.09;5019695;28;20042;-59
2022/05/11 05:01:41;;;;;;;8.00;5.03;;;;;;;10.86;93.40;96144.16;5019194;28;20485;-59
2022/05/11 05:04:06;;;;;;;7.57;4.88;;;;;;;10.89;92.95;96144.69;5022309;28;20116;-59
2022/05/11 05:06:33;;;;;;;5.28;4.78;;;;;;;10.92;93.38;96148.03;5022993;28;20039;-59
2022/05/11 05:09:00;;;;;;;5.18;4.82;;;;;;;10.97;92.66;96153.75;5025604;28;20026;-59
2022/05/11 05:11:26;;;;;;;5.10;4.75;;;;;;;10.99;93.59;96157.09;5017114;28;20033;-59
2022/05/11 05:13:51;;;;;;;14.07;12.98;;;;;;;11.02;93.22;96156.81;5018786;28;20029;-59
2022/05/11 05:16:16;;;;;;;9.20;8.50;;;;;;;11.05;93.21;96159.19;5019615;28;20117;-60
2022/05/11 05:18:42;;;;;;;5.80;5.30;;;;;;;11.12;92.74;96159.50;5026689;28;20036;-60
2022/05/11 05:21:07;;;;;;;12.23;5.20;;;;;;;11.16;92.93;96159.09;5015731;28;20025;-60
2022/05/11 05:23:34;;;;;;;6.10;5.60;;;;;;;11.27;92.01;96160.78;5022746;28;20053;-59
2022/05/11 05:26:00;;;;;;;6.20;5.70;;;;;;;11.36;91.93;96167.03;5024108;28;20029;-60
2022/05/11 05:31:11;;;;;;;8.52;5.88;;;;;;;11.75;91.69;96161.81;5021503;28;20060;-60
2022/05/11 05:33:41;;;;;;;6.93;5.82;;;;;;;11.93;90.26;96171.69;5020426;28;20492;-60
2022/05/11 05:36:07;;;;;;;6.00;5.43;;;;;;;12.07;90.45;96167.03;5021561;28;20569;-60
2022/05/11 05:38:34;;;;;;;8.23;5.95;;;;;;;12.26;90.06;96166.97;5018225;28;20033;-60
2022/05/11 05:41:00;;;;;;;9.23;6.35;;;;;;;12.37;88.35;96162.53;5022242;28;20093;-59
2022/05/11 05:43:25;;;;;;;15.20;5.85;;;;;;;12.52;88.11;96161.13;5018192;28;20626;-60
2022/05/11 05:45:52;;;;;;;11.07;5.13;;;;;;;12.58;86.86;96165.81;5018218;28;20133;-59
2022/05/11 05:48:22;;;;;;;12.23;5.78;;;;;;;12.65;86.56;96159.97;5012791;28;20176;-59
2022/05/11 05:50:48;;;;;;;5.43;4.95;;;;;;;12.66;87.25;96169.56;5018856;28;20033;-59
2022/05/11 05:53:19;;;;;;;10.82;4.47;;;;;;;12.84;86.42;96162.53;5023516;28;20038;-59
2022/05/11 05:55:48;;;;;;;6.72;4.82;;;;;;;13.03;85.13;96168.75;5024941;28;20039;-60
2022/05/11 05:58:14;;;;;;;5.47;4.65;;;;;;;13.11;84.94;96166.19;5016709;28;20064;-60
2022/05/11 06:00:40;;;;;;;7.10;4.20;;;;;;;13.22;84.58;96172.28;5012808;28;20049;-59
2022/05/11 06:03:05;;;;;;;5.93;4.00;;;;;;;13.39;84.06;96166.22;5014146;28;20408;-60
2022/05/11 06:05:31;;;;;;;4.93;4.40;;;;;;;13.50;83.24;96164.34;5026414;28;20443;-60
2022/05/11 06:07:57;;;;;;;4.68;4.22;;;;;;;13.59;82.18;96171.38;5023733;28;20037;-61
2022/05/11 06:10:26;;;;;;;12.48;4.43;;;;;;;13.89;81.41;96174.69;5023448;28;20059;-60
2022/05/11 06:12:52;;;;;;;4.68;3.95;;;;;;;14.25;79.59;96176.47;5014349;28;20033;-59
2022/05/11 06:15:18;;;;;;;3.75;3.45;;;;;;;14.57;78.72;96169.75;5026978;28;20155;-60
2022/05/11 06:17:43;;;;;;;4.38;4.05;;;;;;;15.02;77.36;96165.25;5015075;28;20108;-60
2022/05/11 06:20:09;;;;;;;4.05;3.75;;;;;;;15.41;73.77;96164.75;5017184;28;20085;-60
2022/05/11 06:22:36;;;;;;;3.90;3.60;;;;;;;15.78;71.55;96165.34;5013435;28;20018;-60
2022/05/11 06:25:01;;;;;;;3.50;3.25;;;;;;;16.06;70.36;96167.75;5016494;28;20021;-59
2022/05/11 06:27:27;;;;;;;3.80;3.60;;;;;;;16.48;69.42;96168.59;5015666;28;20409;-61
2022/05/11 06:29:55;;;;;;;3.53;3.33;;;;;;;16.83;68.89;96163.88;5017326;28;20161;-59
2022/05/11 06:32:22;;;;;;;5.70;3.20;;;;;;;17.03;67.94;96169.69;5018441;28;20067;-59
2022/05/11 06:34:48;;;;;;;3.33;3.13;;;;;;;17.18;66.06;96167.13;5016752;28;20038;-60
2022/05/11 06:37:13;;;;;;;6.68;3.22;;;;;;;17.32;65.42;96162.91;5016493;28;20045;-60
2022/05/11 06:39:40;;;;;;;3.67;3.30;;;;;;;17.78;64.55;96161.34;5016674;28;20033;-61
2022/05/11 06:42:09;;;;;;;3.40;3.10;;;;;;;17.95;62.58;96161.25;5025834;28;20026;-60
2022/05/11 06:44:35;;;;;;;6.68;3.20;;;;;;;18.36;59.46;96157.47;5017434;28;20095;-60
2022/05/11 06:47:00;;;;;;;5.72;4.38;;;;;;;18.57;58.10;96160.28;5019886;28;20069;-60
2022/05/11 06:49:26;;;;;;;3.58;3.35;;;;;;;18.90;58.38;96157.31;5019919;28;20033;-60
2022/05/11 06:51:51;;;;;;;3.00;2.80;;;;;;;19.18;54.70;96150.50;5021995;28;20075;-60
2022/05/11 06:59:45;;;;;;;4.43;3.00;;;;;;;19.91;55.75;96149.75;5021386;28;20246;-60
2022/05/11 07:02:10;;;;;;;3.28;3.03;;;;;;;20.21;54.55;96146.94;5023789;28;20117;-60
2022/05/11 07:04:37;;;;;;;3.50;3.20;;;;;;;20.54;51.76;96145.59;5014543;28;20041;-60
2022/05/11 07:07:04;;;;;;;2.67;2.50;;;;;;;20.80;50.67;96150.34;5023057;28;20034;-60
2022/05/11 07:09:32;;;;;;;3.22;3.00;;;;;;;21.13;48.85;96148.88;5028542;28;20018;-60
2022/05/11 07:14:42;;;;;;;3.10;2.90;;;;;;;21.79;47.50;96147.56;5015539;28;20076;-60
2022/05/11 07:17:07;;;;;;;2.60;2.50;;;;;;;21.98;47.47;96142.44;5017013;28;20054;-59
2022/05/11 07:19:33;;;;;;;2.95;2.75;;;;;;;21.96;46.92;96145.31;5014244;28;20456;-60
2022/05/11 07:22:01;;;;;;;2.70;2.50;;;;;;;22.27;47.10;96151.13;5017376;28;20109;-60
2022/05/11 07:24:26;;;;;;;3.10;2.90;;;;;;;22.61;45.42;96142.09;5012873;28;20025;-61
2022/05/11 07:26:52;;;;;;;3.20;2.92;;;;;;;22.29;44.85;96139.19;5013469;28;20041;-60
2022/05/11 07:29:17;;;;;;;2.90;2.72;;;;;;;22.50;45.46;96136.53;5016239;28;20553;-60
2022/05/11 07:31:45;;;;;;;3.22;2.92;;;;;;;22.45;45.14;96132.59;5014509;28;20034;-60
2022/05/11 07:34:11;;;;;;;2.90;2.70;;;;;;;22.80;45.75;96133.44;5011768;28;20029;-60
2022/05/11 07:36:37;;;;;;;3.42;2.63;;;;;;;22.72;45.74;96129.09;5015176;28;20025;-61
2022/05/11 07:39:02;;;;;;;3.17;2.33;;;;;;;22.65;46.54;96131.78;5012586;28;20062;-60
2022/05/11 07:41:28;;;;;;;2.97;2.80;;;;;;;22.83;44.45;96133.81;5011538;28;20401;-60
2022/05/11 07:43:55;;;;;;;5.03;2.80;;;;;;;23.23;44.18;96127.56;5012854;28;20044;-60
2022/05/11 07:46:21;;;;;;;2.97;2.55;;;;;;;22.83;44.34;96131.13;5014431;28;20036;-60
2022/05/11 07:48:47;;;;;;;3.08;2.67;;;;;;;23.27;45.11;96138.69;5013921;28;20014;-60
2022/05/11 07:51:13;;;;;;;2.88;2.60;;;;;;;23.57;43.27;96138.19;5014886;28;20018;-60
2022/05/11 07:53:38;;;;;;;10.18;3.20;;;;;;;23.54;42.90;96136.75;5014262;28;20020;-60
2022/05/11 08:01:32;;;;;;;3.03;2.83;;;;;;;23.82;42.29;96121.31;5015668;28;20092;-60
2022/05/11 08:03:57;;;;;;;3.60;2.90;;;;;;;24.13;42.30;96119.69;5018515;28;20038;-60
2022/05/11 08:06:23;;;;;;;4.57;3.03;;;;;;;24.40;40.93;96111.41;5013946;28;20029;-60
2022/05/11 08:08:49;;;;;;;3.25;3.05;;;;;;;24.60;41.12;96114.78;5015472;28;20546;-60
2022/05/11 08:11:14;;;;;;;2.70;2.50;;;;;;;24.59;41.88;96113.13;5020706;28;20037;-60
2022/05/11 08:13:40;;;;;;;2.85;2.65;;;;;;;24.45;41.71;96108.91;5017911;28;20026;-60
2022/05/11 08:16:05;;;;;;;2.45;2.28;;;;;;;24.44;40.71;96104.59;5015324;28;20017;-61
2022/05/11 08:18:31;;;;;;;3.05;2.83;;;;;;;24.52;40.42;96098.91;5015350;28;20017;-60
2022/05/11 08:20:57;;;;;;;5.45;2.65;;;;;;;24.67;40.51;96112.03;5016524;28;20097;-59
2022/05/11 08:23:22;;;;;;;2.10;2.00;;;;;;;25.01;39.33;96106.34;5017779;28;20033;-59
2022/05/11 08:25:50;;;;;;;2.90;2.70;;;;;;;25.48;39.28;96110.38;5011503;28;20033;-60
2022/05/11 08:28:19;;;;;;;2.83;2.63;;;;;;;25.73;38.48;96103.00;5013824;28;20037;-60
2022/05/11 08:33:32;;;;;;;2.78;2.55;;;;;;;25.56;38.43;96102.00;5024948;28;20132;-59
2022/05/11 08:36:06;;;;;;;4.95;2.88;;;;;;;26.17;36.83;96107.38;5021489;28;20033;-59
2022/05/11 08:38:34;;;;;;;5.13;2.70;;;;;;;25.81;35.92;96109.13;5019099;28;20029;-59
2022/05/11 08:41:04;;;;;;;4.90;2.63;;;;;;;26.12;34.60;96104.53;5025467;28;20681;-59
2022/05/11 08:43:31;;;;;;;3.17;2.50;;;;;;;26.39;36.33;96102.28;5017052;28;20481;-59
2022/05/11 08:46:21;;;;;;;3.13;2.78;;;;;;;27.01;33.16;96097.47;5023867;28;20025;-59
2022/05/11 08:49:24;;;;;;;2.50;2.30;;;;;;;26.79;34.77;96099.94;5018276;28;20030;-59
2022/05/11 08:52:00;;;;;;;4.43;2.63;;;;;;;26.13;36.30;96098.09;5015624;28;20030;-63
2022/05/11 08:54:50;;;;;;;4.57;2.53;;;;;;;26.81;35.02;96087.03;5021400;28;20036;-62
2022/05/11 08:57:19;;;;;;;7.45;2.30;;;;;;;27.55;32.21;96099.16;5017717;28;20041;-62
2022/05/11 08:59:46;;;;;;;4.65;2.50;;;;;;;26.98;32.39;96093.41;5017738;28;20075;-62
2022/05/11 09:02:51;;;;;;;2.35;2.15;;;;;;;26.70;32.76;96100.28;5022124;28;20101;-62
2022/05/11 09:05:20;;;;;;;4.07;2.10;;;;;;;26.85;32.39;96097.13;5024577;28;20029;-62
2022/05/11 09:07:49;;;;;;;3.38;2.00;;;;;;;26.94;32.58;96092.19;5021733;28;20149;-62
2022/05/11 09:10:29;;;;;;;2.30;2.20;;;;;;;26.78;32.83;96088.31;5015214;28;20112;-62
2022/05/11 09:13:07;;;;;;;3.75;2.10;;;;;;;27.26;32.09;96083.69;5017548;28;20176;-62
2022/05/11 09:15:54;;;;;;;3.05;2.22;;;;;;;27.21;32.29;96082.78;5016155;28;20061;-62
2022/05/11 09:18:21;;;;;;;1.90;1.80;;;;;;;27.65;31.77;96083.13;5020669;28;20083;-62
2022/05/11 09:20:52;;;;;;;3.15;2.25;;;;;;;27.48;31.79;96079.50;5013327;28;20060;-62
2022/05/11 09:23:27;;;;;;;2.40;2.20;;;;;;;27.29;33.30;96082.38;5027771;28;20069;-62
2022/05/11 09:26:02;;;;;;;2.45;2.28;;;;;;;27.23;33.88;96075.25;5020138;28;20046;-62
2022/05/11 09:28:28;;;;;;;;;;;;;;;26.91;33.54;96079.16;5018023;28;20071;-62
2022/05/11 09:31:02;;;;;;;5.57;2.50;;;;;;;27.46;33.83;96072.47;5013170;28;19913;-62
2022/05/11 09:33:38;;;;;;;2.58;2.28;;;;;;;27.82;32.31;96066.94;5020433;28;20029;-62
2022/05/11 09:36:04;;;;;;;3.05;1.95;;;;;;;28.04;33.09;96071.63;5019933;28;20041;-61
2022/05/11 09:38:36;;;;;;;2.60;2.10;;;;;;;28.12;32.22;96070.41;5026028;28;20033;-61
2022/05/11 09:41:34;;;;;;;3.13;2.05;;;;;;;27.45;32.55;96070.03;5020670;28;20713;-61
2022/05/11 09:44:23;;;;;;;4.20;2.60;;;;;;;27.58;34.88;96066.25;5006015;28;20049;-62
2022/05/11 09:46:50;;;;;;;3.28;2.80;;;;;;;28.71;31.97;96063.78;5024549;28;20508;-61
2022/05/11 09:49:15;;;;;;;3.20;2.58;;;;;;;29.07;30.88;96071.63;5017466;28;20030;-61
2022/05/11 09:51:50;;;;;;;4.80;2.40;;;;;;;27.97;32.42;96060.16;5021203;28;20033;-61
2022/05/11 09:54:18;;;;;;;5.93;2.72;;;;;;;28.31;32.54;96054.81;5019459;28;20311;-60
2022/05/11 09:57:18;;;;;;;2.60;2.40;;;;;;;27.50;33.73;96056.59;5022228;28;20033;-61
2022/05/11 09:59:51;;;;;;;2.30;2.10;;;;;;;27.92;31.83;96055.47;5027677;28;20045;-61
2022/05/11 10:02:38;;;;;;;4.30;2.30;;;;;;;27.67;33.59;96053.97;5023607;28;20041;-61
2022/05/11 10:05:15;;;;;;;4.03;2.47;;;;;;;28.01;32.61;96055.91;5017936;28;20120;-61
2022/05/11 10:07:48;;;;;;;4.50;2.58;;;;;;;28.23;32.34;96053.34;5020458;28;20049;-61
2022/05/11 10:10:42;;;;;;;3.40;2.50;;;;;;;28.86;31.21;96050.50;5023717;28;20022;-61
2022/05/11 10:13:35;;;;;;;3.00;1.90;;;;;;;27.92;32.70;96043.84;5020582;28;20666;-61
2022/05/11 10:21:50;;;;;;;2.20;2.10;;;;;;;28.56;31.60;96035.41;5018832;28;20172;-61
2022/05/11 10:22:00;;;;;;;3.17;2.22;;;;;;;29.18;29.40;96035.44;5020387;28;20030;-61
2022/05/11 10:24:50;;;;;;;3.75;2.50;;;;;;;29.22;29.27;96033.03;5025558;28;20029;-61
2022/05/11 10:27:37;;;;;;;3.85;2.22;;;;;;;29.43;29.23;96031.44;5020508;28;20037;-61
2022/05/11 10:30:08;;;;;;;5.40;2.53;;;;;;;29.21;30.97;96032.22;5017197;28;20030;-61
2022/05/11 10:32:51;;;;;;;2.40;2.20;;;;;;;28.60;32.91;96031.13;5019324;28;20109;-61
2022/05/11 10:35:36;;;;;;;2.22;2.03;;;;;;;28.47;33.25;96031.50;5022026;28;20075;-61
2022/05/11 10:38:14;;;;;;;2.70;1.90;;;;;;;29.92;28.68;96016.16;5024975;28;20052;-61
2022/05/11 10:40:48;;;;;;;5.82;2.30;;;;;;;29.64;32.67;96018.88;5017335;28;20033;-61
2022/05/11 10:43:28;;;;;;;;;;;;;;;28.22;34.58;96007.56;5021143;28;20446;-61
2022/05/11 10:46:12;;;;;;;2.92;2.75;;;;;;;28.67;32.94;96012.00;5024619;28;19913;-61
2022/05/11 10:48:56;;;;;;;6.90;2.70;;;;;;;28.48;32.75;96008.75;5028280;28;20509;-61
2022/05/11 10:51:32;;;;;;;2.20;2.08;;;;;;;29.05;30.28;96001.41;5024647;28;20403;-61
2022/05/11 10:54:12;;;;;;;2.13;1.92;;;;;;;30.14;27.76;95986.22;5019249;28;20075;-61
2022/05/11 10:56:56;;;;;;;1.83;1.73;;;;;;;30.10;27.92;95985.13;5021762;28;20029;-61
2022/05/11 10:59:25;;;;;;;;;;;;;;;30.30;27.03;95981.75;5024641;28;20056;-61
2022/05/11 11:01:56;;;;;;;2.00;1.90;;;;;;;30.17;27.95;95980.28;5017951;28;19913;-60
2022/05/11 11:04:44;;;;;;;3.28;2.08;;;;;;;30.43;23.63;95980.47;5024651;28;20091;-61
2022/05/11 11:07:13;;;;;;;2.08;1.77;;;;;;;30.37;24.64;95976.06;5021648;28;20037;-61
2022/05/11 11:10:16;;;;;;;2.60;1.70;;;;;;;30.80;23.72;95966.00;5029483;28;20025;-61
2022/05/11 11:12:44;;;;;;;1.67;1.67;;;;;;;30.75;23.73;95968.69;5016105;28;20047;-61
2022/05/11 11:15:13;;;;;;;1.85;1.75;;;;;;;30.50;24.96;95967.47;5023067;28;20393;-61
2022/05/11 11:17:42;;;;;;;1.92;1.80;;;;;;;31.16;22.61;95963.44;5015668;28;20110;-61
2022/05/11 11:20:10;;;;;;;1.80;1.70;;;;;;;30.93;23.51;95950.31;5017012;28;20032;-61
2022/05/11 11:23:00;;;;;;;2.45;1.85;;;;;;;30.53;24.87;95958.78;5021724;28;20117;-61
2022/05/11 11:25:26;;;;;;;2.38;2.05;;;;;;;30.77;24.19;95949.44;5027098;28;20083;-61
2022/05/11 11:28:00;;;;;;;2.20;2.03;;;;;;;30.59;26.37;95955.00;5013149;28;20112;-62
2022/05/11 11:30:26;;;;;;;;;;;;;;;30.93;25.21;95947.59;5014584;28;20040;-61
2022/05/11 11:33:12;;;;;;;1.95;1.85;;;;;;;31.24;24.45;95937.66;5026389;28;19913;-59
2022/05/11 11:36:09;;;;;;;3.05;1.98;;;;;;;31.26;24.68;95940.09;5022712;28;20045;-59
2022/05/11 11:38:41;;;;;;;1.90;1.80;;;;;;;31.79;22.85;95936.38;5024278;28;20061;-59
2022/05/11 11:41:19;;;;;;;2.22;1.95;;;;;;;31.37;24.31;95930.88;5018722;28;20548;-59
2022/05/11 11:43:58;;;;;;;1.83;1.73;;;;;;;31.66;23.10;95927.63;5019385;28;20041;-59
2022/05/11 11:46:28;;;;;;;2.28;1.83;;;;;;;31.23;25.22;95924.31;5029055;28;20116;-59
2022/05/11 11:49:32;;;;;;;2.58;2.05;;;;;;;31.25;24.63;95917.53;5020083;28;20050;-59
2022/05/11 11:52:00;;;;;;;2.03;1.92;;;;;;;31.14;24.88;95913.94;5020551;28;20037;-58
2022/05/11 11:54:28;;;;;;;2.35;1.98;;;;;;;31.30;25.59;95914.81;5016510;28;20397;-59
2022/05/11 11:56:55;;;;;;;1.70;1.60;;;;;;;31.67;23.86;95915.66;5019746;28;20029;-59
2022/05/11 11:59:24;;;;;;;1.83;1.73;;;;;;;31.38;24.38;95910.75;5021191;28;20132;-59
2022/05/11 12:01:54;;;;;;;1.85;1.70;;;;;;;31.85;24.11;95908.06;5018715;28;20030;-59
2022/05/11 12:04:34;;;;;;;5.90;1.67;;;;;;;31.96;22.76;95908.88;5025356;28;20065;-59
2022/05/11 12:15:33;;;;;;;1.70;1.60;;;;;;;32.04;23.59;95899.34;5022253;28;20048;-59
2022/05/11 12:18:00;;;;;;;1.80;1.40;;;;;;;32.21;21.86;95899.84;5016016;28;20125;-59
2022/05/11 12:20:41;;;;;;;1.60;1.50;;;;;;;32.21;21.74;95899.84;5024602;28;20025;-59
2022/05/11 12:23:17;;;;;;;6.57;1.50;;;;;;;32.09;22.35;95891.16;5020339;28;20025;-59
2022/05/11 12:25:52;;;;;;;1.45;1.45;;;;;;;32.73;20.12;95894.25;5019491;28;20084;-59